Time;durP1;ratioP1;P1;durP2;ratioP2;P2;SDS_P1;SDS_P2;PMS_P1;PMS_P2;Temp;Humidity;BMP_temperature;BMP_pressure;BME280_temperature;BME280_humidity;BME280_pressure;Samples;Min_cycle;Max_cycle;Signal;HPM_P1;HPM_P2
2022/08/29 00:02:17;;;;;;;;;;;;;;;17.99;45.87;100608.16;5074421;28;1084;-58
2022/08/29 00:04:43;;;;;;;;;;;;;;;14.36;54.97;100610.34;5073017;28;1281;-57
2022/08/29 00:07:08;;;;;;;;;;;;;;;16.28;48.75;100598.94;5063248;28;1061;-58
2022/08/29 00:09:34;;;;;;;;;;;;;;;17.74;48.39;100607.22;5069264;28;1000;-59
2022/08/29 00:11:59;;;;;;;;;;;;;;;17.36;48.72;100608.81;5062579;28;1963;-58
2022/08/29 00:14:25;;;;;;;;;;;;;;;17.24;48.04;100603.66;5070569;28;993;-58
2022/08/29 00:16:50;;;;;;;;;;;;;;;17.16;47.35;100598.75;5069095;28;1084;-58
2022/08/29 00:19:15;;;;;;;;;;;;;;;17.17;47.13;100595.72;5062568;28;1073;-59
2022/08/29 00:21:41;;;;;;;;;;;;;;;17.18;46.60;100600.13;5070112;28;1059;-59
2022/08/29 00:24:06;;;;;;;;;;;;;;;17.16;46.32;100598.75;5072202;28;1162;-58
2022/08/29 00:26:34;;;;;;;;;;;;;;;17.04;46.20;100610.91;5073471;28;1016;-58
2022/08/29 00:28:59;;;;;;;;;;;;;;;17.03;46.12;100617.47;5072854;28;1111;-60
2022/08/29 00:31:25;;;;;;;;;;;;;;;16.97;45.95;100618.63;5068719;28;1917;-59
2022/08/29 00:33:51;;;;;;;;;;;;;;;17.65;46.61;100619.09;5071179;28;1179;-59
2022/08/29 00:36:16;;;;;;;;;;;;;;;17.47;47.48;100618.66;5066901;28;1032;-59
2022/08/29 00:38:42;;;;;;;;;;;;;;;17.37;46.77;100608.53;5049809;28;1084;-58
2022/08/29 00:41:07;;;;;;;;;;;;;;;17.27;46.58;100609.41;5067581;28;1020;-59
2022/08/29 00:43:33;;;;;;;;;;;;;;;17.24;46.12;100607.22;5070669;28;1016;-58
2022/08/29 00:46:07;;;;;;;;;;;;;;;17.14;46.40;100609.19;5059701;28;985;-59
2022/08/29 00:48:32;;;;;;;;;;;;;;;17.08;46.03;100606.47;5067022;28;1111;-59
2022/08/29 00:51:00;;;;;;;;;;;;;;;17.14;45.93;100606.44;5069787;28;981;-59
2022/08/29 00:53:44;;;;;;;;;;;;;;;17.17;45.76;100608.66;5069908;28;1953;-59
2022/08/29 00:56:10;;;;;;;;;;;;;;;17.14;45.53;100610.03;5065834;28;1209;-58
2022/08/29 00:58:56;;;;;;;;;;;;;;;17.12;45.71;100611.41;5052981;28;1148;-59
2022/08/29 01:01:21;;;;;;;;;;;;;;;17.07;45.62;100615.00;5053117;28;1199;-58
2022/08/29 01:03:47;;;;;;;;;;;;;;;17.09;45.51;100602.59;5074263;28;1069;-58
2022/08/29 01:06:12;;;;;;;;;;;;;;;17.04;45.71;100599.06;5053134;28;1279;-59
2022/08/29 01:08:38;;;;;;;;;;;;;;;16.99;45.79;100610.91;5059671;28;1017;-59
2022/08/29 01:13:47;;;;;;;;;;;;;;;17.05;45.59;100609.75;5045249;28;1060;-58
2022/08/29 01:16:13;;;;;;;;;;;;;;;17.18;45.33;100616.59;5054831;28;1010;-58
2022/08/29 01:18:39;;;;;;;;;;;;;;;17.02;45.35;100612.28;5067248;28;1175;-58
2022/08/29 01:21:12;;;;;;;;;;;;;;;17.02;45.49;100606.78;5057053;28;1108;-58
2022/08/29 01:23:41;;;;;;;;;;;;;;;17.02;45.39;100602.09;5068426;28;1175;-58
2022/08/29 01:26:07;;;;;;;;;;;;;;;17.93;45.88;100603.81;5058517;28;1017;-58
2022/08/29 01:28:33;;;;;;;;;;;;;;;17.39;46.83;100594.50;5056958;28;1283;-58
2022/08/29 01:31:09;;;;;;;;;;;;;;;17.30;46.58;100594.28;5071456;28;895;-58
2022/08/29 01:33:42;;;;;;;;;;;;;;;17.19;46.23;100593.50;5076279;28;1167;-58
2022/08/29 01:36:08;;;;;;;;;;;;;;;17.17;45.94;100592.16;5043669;28;1022;-58
2022/08/29 01:38:34;;;;;;;;;;;;;;;17.15;45.71;100591.59;5071736;28;1013;-59
2022/08/29 01:40:59;;;;;;;;;;;;;;;17.10;45.75;100592.47;5068808;28;1087;-59
2022/08/29 01:43:25;;;;;;;;;;;;;;;17.11;45.78;100591.38;5071221;28;989;-59
2022/08/29 01:45:50;;;;;;;;;;;;;;;17.10;45.72;100581.47;5070680;28;966;-59
2022/08/29 01:48:16;;;;;;;;;;;;;;;17.10;45.70;100590.53;5048699;28;1063;-58
2022/08/29 01:50:42;;;;;;;;;;;;;;;17.14;45.36;100592.69;5054930;28;969;-59
2022/08/29 01:53:07;;;;;;;;;;;;;;;17.91;46.39;100595.84;5062153;28;1906;-59
2022/08/29 01:55:33;;;;;;;;;;;;;;;17.44;47.06;100581.53;5067240;28;1208;-58
2022/08/29 01:57:58;;;;;;;;;;;;;;;17.28;46.56;100588.25;5058483;28;1056;-59
2022/08/29 02:00:24;;;;;;;;;;;;;;;17.28;46.14;100580.81;5057115;28;1244;-58
2022/08/29 02:02:50;;;;;;;;;;;;;;;17.15;46.28;100583.38;5070596;28;1092;-59
2022/08/29 02:05:15;;;;;;;;;;;;;;;17.28;45.64;100585.50;5075756;28;1012;-59
2022/08/29 02:07:41;;;;;;;;;;;;;;;17.19;45.48;100589.94;5071130;28;939;-59
2022/08/29 02:10:06;;;;;;;;;;;;;;;17.16;45.49;100585.00;5072705;28;1215;-57
2022/08/29 02:12:32;;;;;;;;;;;;;;;17.18;45.42;100582.78;5069056;28;1901;-58
2022/08/29 02:14:58;;;;;;;;;;;;;;;17.11;45.62;100580.38;5069682;28;957;-58
2022/08/29 02:17:23;;;;;;;;;;;;;;;17.13;45.54;100580.09;5069895;28;1024;-57
2022/08/29 02:19:48;;;;;;;;;;;;;;;17.09;45.29;100590.81;5070057;28;843;-57
2022/08/29 02:22:14;;;;;;;;;;;;;;;17.18;45.11;100586.38;5070944;28;1123;-58
2022/08/29 02:24:39;;;;;;;;;;;;;;;17.09;45.12;100586.13;5074701;28;1059;-59
2022/08/29 02:27:05;;;;;;;;;;;;;;;17.05;45.48;100582.28;5073013;28;1238;-57
2022/08/29 02:29:30;;;;;;;;;;;;;;;17.08;45.19;100573.50;5075809;28;1021;-57
2022/08/29 02:31:56;;;;;;;;;;;;;;;17.00;45.33;100584.25;5063486;28;1960;-59
2022/08/29 02:34:22;;;;;;;;;;;;;;;17.04;45.07;100577.94;5059102;28;1090;-59
2022/08/29 02:36:47;;;;;;;;;;;;;;;17.05;45.28;100579.56;5070885;28;1025;-59
2022/08/29 02:39:13;;;;;;;;;;;;;;;16.99;45.11;100577.13;5066186;28;969;-59
2022/08/29 02:41:38;;;;;;;;;;;;;;;17.05;44.93;100576.00;5072146;28;1029;-58
2022/08/29 02:44:03;;;;;;;;;;;;;;;17.06;44.93;100577.66;5072539;28;914;-56
2022/08/29 02:46:29;;;;;;;;;;;;;;;17.02;44.94;100588.34;5070657;28;1358;-56
2022/08/29 02:48:54;;;;;;;;;;;;;;;17.03;45.23;100587.25;5070408;28;1021;-57
2022/08/29 02:51:21;;;;;;;;;;;;;;;17.06;45.07;100592.19;5059141;28;1910;-57
2022/08/29 02:53:47;;;;;;;;;;;;;;;17.00;44.94;100587.84;5070783;28;1001;-57
2022/08/29 02:56:13;;;;;;;;;;;;;;;16.95;45.13;100585.09;5050414;28;1162;-57
2022/08/29 02:58:38;;;;;;;;;;;;;;;17.77;46.60;100600.34;5069422;28;1021;-56
2022/08/29 03:01:04;;;;;;;;;;;;;;;17.24;46.91;100598.16;5071443;28;1009;-52
2022/08/29 03:03:30;;;;;;;;;;;;;;;17.19;46.66;100596.25;5063551;28;978;-49
2022/08/29 03:05:55;;;;;;;;;;;;;;;17.16;46.52;100598.75;5056602;28;1399;-52
2022/08/29 03:08:21;;;;;;;;;;;;;;;17.87;46.81;100602.19;5074854;28;1234;-53
2022/08/29 03:10:46;;;;;;;;;;;;;;;15.34;53.84;100608.13;5076137;28;1116;-49
2022/08/29 03:13:12;;;;;;;;;;;;;;;16.51;52.34;100610.44;5067622;28;1901;-52
2022/08/29 03:15:37;;;;;;;;;;;;;;;18.22;50.08;100614.03;5067229;28;1170;-50
2022/08/29 03:18:03;;;;;;;;;;;;;;;14.67;58.68;100615.22;5071114;28;997;-48
2022/08/29 03:20:29;;;;;;;;;;;;;;;16.55;51.27;100611.53;5062666;28;1198;-52
2022/08/29 03:22:54;;;;;;;;;;;;;;;16.94;49.84;100610.91;5072303;28;1025;-50
2022/08/29 03:25:20;;;;;;;;;;;;;;;16.87;48.94;100611.19;5070206;28;1166;-50
2022/08/29 03:27:46;;;;;;;;;;;;;;;16.96;48.31;100614.22;5073117;28;1138;-49
2022/08/29 03:30:12;;;;;;;;;;;;;;;17.53;49.64;100612.03;5073209;28;1131;-52
2022/08/29 03:32:37;;;;;;;;;;;;;;;17.26;49.03;100612.44;5063270;28;1963;-50
2022/08/29 03:35:03;;;;;;;;;;;;;;;17.16;48.19;100613.31;5069815;28;1131;-51
2022/08/29 03:37:28;;;;;;;;;;;;;;;17.17;47.56;100614.16;5070122;28;1119;-55
2022/08/29 03:39:54;;;;;;;;;;;;;;;17.18;47.08;100604.78;5063962;28;1013;-52
2022/08/29 03:42:20;;;;;;;;;;;;;;;17.15;47.01;100613.59;5065658;28;1021;-49
2022/08/29 03:44:45;;;;;;;;;;;;;;;17.97;47.67;100621.38;5052609;28;1206;-52
2022/08/29 03:47:10;;;;;;;;;;;;;;;17.48;48.10;100625.78;5075777;28;1277;-55
2022/08/29 03:49:36;;;;;;;;;;;;;;;17.29;47.90;100628.34;5065721;28;965;-57
2022/08/29 03:52:02;;;;;;;;;;;;;;;17.38;47.26;100632.16;5067496;28;1902;-53
2022/08/29 03:54:28;;;;;;;;;;;;;;;17.24;46.88;100636.63;5068062;28;1166;-56
2022/08/29 03:56:54;;;;;;;;;;;;;;;17.21;46.56;100638.03;5066630;28;1032;-52
2022/08/29 03:59:20;;;;;;;;;;;;;;;17.17;46.68;100627.88;5071802;28;1091;-53
2022/08/29 04:01:48;;;;;;;;;;;;;;;17.17;46.28;100630.63;5069417;28;1123;-53
2022/08/29 04:06:59;;;;;;;;;;;;;;;17.18;46.24;100629.50;5056485;28;1036;-53
2022/08/29 04:09:25;;;;;;;;;;;;;;;17.14;45.93;100628.41;5057741;28;1230;-53
2022/08/29 04:11:50;;;;;;;;;;;;;;;17.02;46.33;100635.06;5068462;28;1902;-56
2022/08/29 04:14:16;;;;;;;;;;;;;;;17.10;46.02;100636.41;5059511;28;2354;-49
2022/08/29 04:16:41;;;;;;;;;;;;;;;17.08;45.77;100641.34;5070331;28;961;-53
2022/08/29 04:19:07;;;;;;;;;;;;;;;17.06;45.69;100647.13;5049678;28;1381;-55
2022/08/29 04:21:33;;;;;;;;;;;;;;;17.02;45.98;100637.00;5061956;28;1005;-56
2022/08/29 04:23:58;;;;;;;;;;;;;;;17.03;45.95;100639.47;5071918;28;1064;-55
2022/08/29 04:26:24;;;;;;;;;;;;;;;16.99;46.04;100646.59;5070508;28;1222;-48
2022/08/29 04:28:49;;;;;;;;;;;;;;;17.13;45.56;100646.03;5073796;28;1104;-53
2022/08/29 04:31:19;;;;;;;;;;;;;;;17.08;45.50;100639.44;5070928;28;1210;-56
2022/08/29 04:33:45;;;;;;;;;;;;;;;16.99;45.78;100649.34;5055630;28;1029;-57
2022/08/29 04:36:11;;;;;;;;;;;;;;;17.15;45.97;100646.56;5062734;28;998;-57
2022/08/29 04:38:36;;;;;;;;;;;;;;;17.60;47.00;100648.28;5065937;28;1036;-53
2022/08/29 04:41:03;;;;;;;;;;;;;;;17.20;47.40;100646.56;5066209;28;973;-58
2022/08/29 04:43:29;;;;;;;;;;;;;;;17.28;46.68;100649.53;5072671;28;1155;-56
2022/08/29 04:45:55;;;;;;;;;;;;;;;17.18;46.47;100640.50;5077285;28;2535;-52
2022/08/29 04:48:20;;;;;;;;;;;;;;;17.34;47.18;100642.09;5068038;28;993;-57
2022/08/29 04:50:51;;;;;;;;;;;;;;;17.34;46.78;100653.06;5055737;28;1087;-57
2022/08/29 04:53:17;;;;;;;;;;;;;;;17.20;46.54;100652.84;5060797;28;1971;-56
2022/08/29 04:55:42;;;;;;;;;;;;;;;17.26;46.27;100656.41;5067435;28;1175;-57
2022/08/29 04:58:08;;;;;;;;;;;;;;;17.24;45.85;100642.94;5070291;28;1442;-58
2022/08/29 05:00:33;;;;;;;;;;;;;;;17.16;46.58;100649.03;5076199;28;1033;-56
2022/08/29 05:02:58;;;;;;;;;;;;;;;17.42;47.56;100652.50;5070007;28;1163;-57
2022/08/29 05:05:24;;;;;;;;;;;;;;;17.28;47.38;100655.03;5072039;28;920;-57
2022/08/29 05:07:49;;;;;;;;;;;;;;;17.31;47.29;100656.38;5065424;28;1060;-57
2022/08/29 05:10:16;;;;;;;;;;;;;;;17.35;47.19;100645.63;5066147;28;994;-57
2022/08/29 05:12:42;;;;;;;;;;;;;;;17.29;46.80;100655.84;5054420;28;1914;-52
2022/08/29 05:15:08;;;;;;;;;;;;;;;17.31;46.39;100653.66;5061171;28;2400;-55
2022/08/29 05:17:33;;;;;;;;;;;;;;;17.27;46.34;100652.56;5073683;28;1086;-56
2022/08/29 05:19:59;;;;;;;;;;;;;;;17.30;45.95;100660.25;5069248;28;1037;-55
2022/08/29 05:22:25;;;;;;;;;;;;;;;17.18;46.45;100654.22;5074277;28;1079;-57
2022/08/29 05:24:50;;;;;;;;;;;;;;;17.17;46.48;100663.59;5057543;28;1088;-54
2022/08/29 05:27:17;;;;;;;;;;;;;;;17.26;45.83;100661.91;5075715;28;1258;-57
2022/08/29 05:29:43;;;;;;;;;;;;;;;17.35;46.40;100659.38;5077330;28;1115;-57
2022/08/29 05:32:09;;;;;;;;;;;;;;;16.87;49.34;100662.53;5073186;28;1909;-58
2022/08/29 05:34:34;;;;;;;;;;;;;;;15.71;53.69;100663.88;5071872;28;977;-57
2022/08/29 05:37:00;;;;;;;;;;;;;;;18.47;49.67;100657.84;5058831;28;1072;-55
2022/08/29 05:39:26;;;;;;;;;;;;;;;14.87;57.98;100670.09;5070482;28;1199;-55
2022/08/29 05:41:55;;;;;;;;;;;;;;;16.84;53.44;100658.41;5074411;28;1075;-57
2022/08/29 05:44:20;;;;;;;;;;;;;;;18.07;51.36;100659.81;5067619;28;1923;-56
2022/08/29 05:46:47;;;;;;;;;;;;;;;17.32;53.47;100660.78;5069261;28;961;-56
2022/08/29 05:49:13;;;;;;;;;;;;;;;17.50;52.84;100659.34;5072599;28;1412;-56
2022/08/29 05:51:39;;;;;;;;;;;;;;;17.48;52.89;100655.22;5069092;28;2012;-56
2022/08/29 05:54:04;;;;;;;;;;;;;;;17.58;53.70;100660.66;5074023;28;1033;-54
2022/08/29 05:56:30;;;;;;;;;;;;;;;17.47;53.58;100664.56;5067406;28;1209;-58
2022/08/29 05:58:55;;;;;;;;;;;;;;;17.42;53.71;100660.75;5075445;28;1115;-57
2022/08/29 06:01:25;;;;;;;;;;;;;;;17.39;53.75;100665.97;5075193;28;1198;-56
2022/08/29 06:03:50;;;;;;;;;;;;;;;17.38;53.94;100676.16;5077620;28;1091;-57
2022/08/29 06:06:18;;;;;;;;;;;;;;;17.34;54.11;100672.31;5076779;28;1005;-59
2022/08/29 06:08:43;;;;;;;;;;;;;;;17.31;54.15;100672.06;5065748;28;883;-57
2022/08/29 06:11:12;;;;;;;;;;;;;;;17.32;54.04;100676.44;5072159;28;1124;-56
2022/08/29 06:13:38;;;;;;;;;;;;;;;17.24;54.28;100675.13;5068205;28;1972;-57
2022/08/29 06:16:03;;;;;;;;;;;;;;;17.26;54.42;100670.16;5073672;28;1103;-57
2022/08/29 06:18:29;;;;;;;;;;;;;;;17.19;54.39;100666.88;5070978;28;1223;-59
2022/08/29 06:20:55;;;;;;;;;;;;;;;17.27;54.35;100669.06;5064040;28;890;-58
2022/08/29 06:23:20;;;;;;;;;;;;;;;17.24;54.52;100669.63;5070949;28;1231;-58
2022/08/29 06:25:53;;;;;;;;;;;;;;;17.21;54.63;100664.69;5076138;28;1096;-57
2022/08/29 06:28:19;;;;;;;;;;;;;;;17.18;54.62;100673.47;5076437;28;1135;-57
2022/08/29 06:30:44;;;;;;;;;;;;;;;17.19;54.64;100661.38;5057961;28;939;-57
2022/08/29 06:33:10;;;;;;;;;;;;;;;17.14;54.90;100666.88;5064779;28;1977;-56
2022/08/29 06:35:36;;;;;;;;;;;;;;;17.17;54.82;100663.59;5067122;28;1101;-56
2022/08/29 06:38:01;;;;;;;;;;;;;;;17.16;54.80;100672.94;5071648;28;1084;-56
2022/08/29 06:40:27;;;;;;;;;;;;;;;17.13;54.64;100670.75;5069982;28;1055;-56
2022/08/29 06:42:52;;;;;;;;;;;;;;;17.15;54.82;100663.03;5071917;28;989;-56
2022/08/29 06:45:18;;;;;;;;;;;;;;;17.15;54.82;100661.09;5070127;28;867;-56
2022/08/29 06:47:44;;;;;;;;;;;;;;;17.14;54.91;100661.38;5069629;28;1016;-57
2022/08/29 06:50:10;;;;;;;;;;;;;;;17.12;55.11;100663.63;5070499;28;1020;-55
2022/08/29 06:52:35;;;;;;;;;;;;;;;17.14;54.76;100661.38;5073114;28;1914;-56
2022/08/29 06:55:01;;;;;;;;;;;;;;;17.09;55.21;100667.72;5070298;28;1059;-55
2022/08/29 06:57:26;;;;;;;;;;;;;;;17.06;54.94;100658.13;5065099;28;926;-57
2022/08/29 06:59:52;;;;;;;;;;;;;;;17.08;55.02;100661.44;5071855;28;1242;-56
2022/08/29 07:02:17;;;;;;;;;;;;;;;17.10;54.94;100656.47;5075149;28;1025;-58
2022/08/29 07:04:43;;;;;;;;;;;;;;;17.08;55.10;100663.34;5073844;28;1158;-57
2022/08/29 07:07:08;;;;;;;;;;;;;;;17.08;55.06;100663.34;5065977;28;1028;-56
2022/08/29 07:09:34;;;;;;;;;;;;;;;17.05;55.31;100661.97;5069558;28;933;-58
2022/08/29 07:11:59;;;;;;;;;;;;;;;17.07;55.32;100665.28;5058121;28;1957;-59
2022/08/29 07:14:25;;;;;;;;;;;;;;;17.05;55.15;100661.97;5072515;28;1033;-58
2022/08/29 07:16:50;;;;;;;;;;;;;;;17.07;55.39;100662.53;5069518;28;1182;-57
2022/08/29 07:19:16;;;;;;;;;;;;;;;17.08;55.39;100668.81;5073567;28;1084;-55
2022/08/29 07:21:41;;;;;;;;;;;;;;;17.10;55.36;100669.38;5062793;28;1171;-57
2022/08/29 07:24:07;;;;;;;;;;;;;;;17.04;55.58;100670.50;5068153;28;985;-55
2022/08/29 07:26:35;;;;;;;;;;;;;;;17.07;55.27;100669.94;5069412;28;1119;-57
2022/08/29 07:29:00;;;;;;;;;;;;;;;17.10;55.55;100675.69;5062671;28;1029;-57
2022/08/29 07:31:26;;;;;;;;;;;;;;;17.09;55.54;100679.53;5067595;28;1909;-56
2022/08/29 07:33:51;;;;;;;;;;;;;;;17.05;55.73;100670.19;5042298;28;1052;-57
2022/08/29 07:36:17;;;;;;;;;;;;;;;17.06;55.64;100671.84;5069637;28;1091;-56
2022/08/29 07:38:42;;;;;;;;;;;;;;;17.04;55.75;100673.22;5069581;28;1024;-57
2022/08/29 07:41:13;;;;;;;;;;;;;;;17.07;55.52;100680.94;5069709;28;1036;-56
2022/08/29 07:43:38;;;;;;;;;;;;;;;17.07;55.64;100670.75;5072612;28;1001;-57
2022/08/29 07:46:07;;;;;;;;;;;;;;;17.07;55.58;100670.75;5065056;28;926;-58
2022/08/29 07:48:32;;;;;;;;;;;;;;;17.09;55.53;100679.53;5069077;28;1111;-58
2022/08/29 07:50:58;;;;;;;;;;;;;;;17.08;55.87;100677.91;5070882;28;1096;-58
2022/08/29 07:53:23;;;;;;;;;;;;;;;17.07;55.68;100687.25;5069127;28;1938;-61
2022/08/29 07:55:49;;;;;;;;;;;;;;;17.07;55.87;100679.00;5072519;28;1144;-57
2022/08/29 07:58:14;;;;;;;;;;;;;;;17.07;55.80;100684.50;5061326;28;1139;-60
2022/08/29 08:00:40;;;;;;;;;;;;;;;17.09;55.79;100685.03;5073890;28;1104;-57
2022/08/29 08:03:05;;;;;;;;;;;;;;;17.08;55.80;100680.66;5072277;28;1217;-59
2022/08/29 08:05:31;;;;;;;;;;;;;;;17.10;55.88;100681.19;5064591;28;1100;-59
2022/08/29 08:07:56;;;;;;;;;;;;;;;17.05;56.32;100683.94;5060881;28;1014;-58
2022/08/29 08:10:22;;;;;;;;;;;;;;;17.08;56.08;100686.16;5041582;28;1198;-58
2022/08/29 08:12:47;;;;;;;;;;;;;;;17.07;56.14;100675.44;5070600;28;1985;-56
2022/08/29 08:15:13;;;;;;;;;;;;;;;17.05;56.14;100678.44;5065538;28;1152;-58
2022/08/29 08:17:39;;;;;;;;;;;;;;;17.09;56.27;100679.53;5072088;28;1075;-58
2022/08/29 08:20:06;;;;;;;;;;;;;;;17.06;56.17;100680.09;5069534;28;1107;-58
2022/08/29 08:22:32;;;;;;;;;;;;;;;17.10;56.43;100685.88;5068601;28;915;-57
2022/08/29 08:24:57;;;;;;;;;;;;;;;17.06;56.58;100685.59;5074930;28;1087;-58
2022/08/29 08:27:23;;;;;;;;;;;;;;;17.06;56.42;100682.03;5073679;28;1068;-58
2022/08/29 08:29:48;;;;;;;;;;;;;;;17.05;56.52;100694.13;5074741;28;1088;-58
2022/08/29 08:32:13;;;;;;;;;;;;;;;17.08;56.57;100688.91;5070346;28;1910;-56
2022/08/29 08:34:39;;;;;;;;;;;;;;;17.06;56.77;100691.09;5060634;28;856;-57
2022/08/29 08:37:06;;;;;;;;;;;;;;;17.05;56.54;100686.69;5066883;28;1032;-58
2022/08/29 08:39:31;;;;;;;;;;;;;;;17.09;56.62;100690.53;5068447;28;977;-57
2022/08/29 08:42:21;;;;;;;;;;;;;;;17.08;56.54;100685.31;5070397;28;1103;-57
2022/08/29 08:44:50;;;;;;;;;;;;;;;17.04;56.69;100682.31;5052561;28;1670;-58
2022/08/29 08:47:17;;;;;;;;;;;;;;;17.07;56.56;100680.94;5045851;28;1009;-57
2022/08/29 08:49:44;;;;;;;;;;;;;;;17.08;56.76;100674.31;5047918;28;1199;-57
2022/08/29 08:52:12;;;;;;;;;;;;;;;17.05;56.93;100683.94;5052806;28;1991;-58
2022/08/29 08:54:56;;;;;;;;;;;;;;;17.08;56.85;100677.91;5065442;28;1159;-57
2022/08/29 08:57:22;;;;;;;;;;;;;;;17.09;56.93;100678.72;5062004;28;1028;-59
2022/08/29 08:59:53;;;;;;;;;;;;;;;17.06;57.06;100684.78;5050549;28;1168;-59
2022/08/29 09:02:37;;;;;;;;;;;;;;;17.12;57.01;100661.66;5055726;28;1056;-60
2022/08/29 09:05:26;;;;;;;;;;;;;;;17.10;56.99;100669.38;5073760;28;1198;-58
2022/08/29 09:08:10;;;;;;;;;;;;;;;17.05;56.93;100670.19;5038146;28;1037;-58
2022/08/29 09:10:35;;;;;;;;;;;;;;;17.08;56.93;100671.56;5064092;28;898;-57
2022/08/29 09:13:10;;;;;;;;;;;;;;;17.11;56.99;100665.53;5068974;28;1909;-60
2022/08/29 09:15:42;;;;;;;;;;;;;;;17.10;57.02;100672.94;5066838;28;1020;-60
2022/08/29 09:18:09;;;;;;;;;;;;;;;17.08;57.19;100675.16;5070541;28;1004;-62
2022/08/29 09:20:35;;;;;;;;;;;;;;;17.10;57.27;100661.16;5051139;28;1029;-63
2022/08/29 09:23:05;;;;;;;;;;;;;;;17.08;57.42;100666.91;5068064;28;871;-58
2022/08/29 09:25:34;;;;;;;;;;;;;;;17.08;57.25;100669.66;5054301;28;1215;-57
2022/08/29 09:28:00;;;;;;;;;;;;;;;17.12;57.44;100663.63;5077394;28;1052;-57
2022/08/29 09:30:27;;;;;;;;;;;;;;;17.10;57.24;100664.69;5077223;28;1222;-57
2022/08/29 09:32:55;;;;;;;;;;;;;;;17.12;57.36;100664.41;5071583;28;1906;-56
2022/08/29 09:35:24;;;;;;;;;;;;;;;17.15;57.39;100671.28;5069606;28;1001;-56
2022/08/29 09:38:20;;;;;;;;;;;;;;;17.14;57.45;100670.47;5070147;28;1033;-56
2022/08/29 09:40:47;;;;;;;;;;;;;;;17.12;57.74;100675.41;5039962;28;1291;-56
2022/08/29 09:43:18;;;;;;;;;;;;;;;17.13;57.74;100673.50;5060182;28;1131;-57
2022/08/29 09:46:02;;;;;;;;;;;;;;;17.15;57.69;100669.34;5052481;28;1049;-57
2022/08/29 09:48:27;;;;;;;;;;;;;;;17.17;57.62;100669.91;5061609;28;1041;-56
2022/08/29 09:51:06;;;;;;;;;;;;;;;17.15;57.56;100676.78;5073012;28;1025;-58
2022/08/29 09:53:32;;;;;;;;;;;;;;;17.19;57.74;100677.88;5053749;28;1910;-58
2022/08/29 09:55:57;;;;;;;;;;;;;;;17.18;57.71;100679.81;5074408;28;1124;-56
2022/08/29 09:58:23;;;;;;;;;;;;;;;17.18;57.74;100676.22;5050013;28;1300;-56
2022/08/29 10:00:57;;;;;;;;;;;;;;;17.16;57.88;100683.94;5075927;28;1008;-51
2022/08/29 10:03:24;;;;;;;;;;;;;;;17.16;57.52;100672.94;5075299;28;1151;-52
2022/08/29 10:05:49;;;;;;;;;;;;;;;17.16;57.56;100672.94;5059249;28;1088;-50
2022/08/29 10:08:26;;;;;;;;;;;;;;;17.17;57.42;100685.59;5056145;28;1112;-56
2022/08/29 10:10:54;;;;;;;;;;;;;;;17.16;57.69;100683.94;5069034;28;871;-53
2022/08/29 10:13:23;;;;;;;;;;;;;;;17.14;57.59;100675.97;5068975;28;1918;-56
2022/08/29 10:15:50;;;;;;;;;;;;;;;17.13;57.83;100668.00;5053780;28;1068;-55
2022/08/29 10:18:19;;;;;;;;;;;;;;;17.18;57.69;100671.56;5054164;28;1033;-57
2022/08/29 10:20:47;;;;;;;;;;;;;;;17.17;57.79;100677.34;5062463;28;1009;-56
2022/08/29 10:23:19;;;;;;;;;;;;;;;17.20;57.66;100679.53;5066047;28;907;-55
2022/08/29 10:25:44;;;;;;;;;;;;;;;17.17;57.97;100680.09;5074643;28;1163;-57
2022/08/29 10:28:13;;;;;;;;;;;;;;;17.16;57.87;100683.94;5057951;28;1029;-57
2022/08/29 10:30:48;;;;;;;;;;;;;;;17.19;57.56;100683.38;5075922;28;1221;-57
2022/08/29 10:33:32;;;;;;;;;;;;;;;17.15;57.93;100677.59;5064615;28;1980;-57
2022/08/29 10:36:07;;;;;;;;;;;;;;;17.16;57.75;100679.25;5059135;28;949;-57
2022/08/29 10:38:35;;;;;;;;;;;;;;;17.19;57.66;100677.88;5055856;28;1092;-57
2022/08/29 10:41:04;;;;;;;;;;;;;;;17.14;57.99;100681.47;5068383;28;1065;-57
2022/08/29 10:43:33;;;;;;;;;;;;;;;17.17;57.94;100688.34;5056888;28;985;-56
2022/08/29 10:46:17;;;;;;;;;;;;;;;17.19;57.76;100684.19;5071876;28;1010;-56
2022/08/29 10:48:45;;;;;;;;;;;;;;;17.15;57.58;100682.28;5076669;28;997;-56
2022/08/29 10:51:20;;;;;;;;;;;;;;;17.13;57.62;100684.50;5062833;28;1072;-54
2022/08/29 10:53:55;;;;;;;;;;;;;;;17.15;57.68;100687.78;5076884;28;1982;-51
2022/08/29 10:56:34;;;;;;;;;;;;;;;17.19;57.46;100672.38;5073779;28;1292;-53
2022/08/29 10:59:26;;;;;;;;;;;;;;;17.18;57.95;100676.22;5068535;28;843;-55
2022/08/29 11:01:56;;;;;;;;;;;;;;;17.21;57.74;100681.19;5064764;28;1239;-54
2022/08/29 11:04:24;;;;;;;;;;;;;;;17.22;57.67;100677.31;5058872;28;1080;-56
2022/08/29 11:06:54;;;;;;;;;;;;;;;17.21;57.78;100679.25;5076104;28;1072;-57
2022/08/29 11:09:21;;;;;;;;;;;;;;;17.17;57.92;100669.91;5059131;28;989;-49
2022/08/29 11:11:57;;;;;;;;;;;;;;;17.17;57.84;100671.84;5050441;28;1937;-55
2022/08/29 11:14:28;;;;;;;;;;;;;;;17.19;57.94;100661.38;5063359;28;1207;-55
2022/08/29 11:16:53;;;;;;;;;;;;;;;17.21;57.78;100667.44;5058796;28;1172;-50
2022/08/29 11:19:30;;;;;;;;;;;;;;;17.22;57.93;100669.06;5076745;28;1024;-52
2022/08/29 11:21:59;;;;;;;;;;;;;;;17.24;57.46;100659.44;5048110;28;1127;-55
2022/08/29 11:24:26;;;;;;;;;;;;;;;17.24;57.86;100662.19;5064578;28;1108;-54
2022/08/29 11:26:54;;;;;;;;;;;;;;;17.26;57.58;100657.25;5057910;28;1112;-55
2022/08/29 11:29:32;;;;;;;;;;;;;;;17.24;57.56;100648.44;5050408;28;1143;-49
2022/08/29 11:32:09;;;;;;;;;;;;;;;17.24;57.85;100653.13;5075836;28;1897;-51
2022/08/29 11:34:54;;;;;;;;;;;;;;;17.26;57.79;100651.75;5074923;28;962;-55
2022/08/29 11:37:19;;;;;;;;;;;;;;;17.23;57.85;100644.03;5065754;28;913;-55
2022/08/29 11:39:49;;;;;;;;;;;;;;;17.24;58.02;100647.63;5058733;28;1116;-55
2022/08/29 11:42:15;;;;;;;;;;;;;;;17.27;57.88;100641.56;5070115;28;1265;-52
2022/08/29 11:44:48;;;;;;;;;;;;;;;17.27;57.81;100638.81;5068217;28;1017;-55
2022/08/29 11:47:28;;;;;;;;;;;;;;;17.27;57.85;100630.56;5061885;28;1026;-56
2022/08/29 11:49:54;;;;;;;;;;;;;;;17.24;57.81;100645.69;5060678;28;1040;-55
2022/08/29 11:52:24;;;;;;;;;;;;;;;17.28;57.99;100648.72;5075326;28;1977;-56
2022/08/29 11:54:55;;;;;;;;;;;;;;;17.27;57.79;100653.38;5075886;28;1246;-55
2022/08/29 11:57:30;;;;;;;;;;;;;;;17.27;57.87;100645.13;5040297;28;1174;-54
2022/08/29 11:59:56;;;;;;;;;;;;;;;17.29;57.89;100644.84;5061731;28;1120;-57
2022/08/29 12:02:27;;;;;;;;;;;;;;;17.28;57.83;100652.28;5075357;28;989;-56
2022/08/29 12:05:03;;;;;;;;;;;;;;;17.22;58.06;100645.16;5075653;28;1198;-57
2022/08/29 12:07:36;;;;;;;;;;;;;;;17.26;57.89;100646.25;5057573;28;1037;-55
2022/08/29 12:10:02;;;;;;;;;;;;;;;17.25;57.61;100644.59;5057660;28;962;-54
2022/08/29 12:12:42;;;;;;;;;;;;;;;17.28;57.70;100638.53;5054507;28;1902;-56
2022/08/29 12:15:26;;;;;;;;;;;;;;;17.26;57.71;100645.41;5075905;28;989;-46
2022/08/29 12:17:52;;;;;;;;;;;;;;;17.24;57.98;100637.44;5075552;28;1008;-55
2022/08/29 12:20:39;;;;;;;;;;;;;;;17.20;57.85;100646.56;5056373;28;1104;-55
2022/08/29 12:23:14;;;;;;;;;;;;;;;17.21;57.92;100627.03;5071427;28;1415;-56
2022/08/29 12:25:46;;;;;;;;;;;;;;;17.23;57.76;100630.31;5062180;28;1124;-55
2022/08/29 12:28:19;;;;;;;;;;;;;;;17.21;57.94;100631.72;5075225;28;977;-54
2022/08/29 12:30:57;;;;;;;;;;;;;;;17.21;57.96;100640.78;5061889;28;986;-52
2022/08/29 12:33:41;;;;;;;;;;;;;;;17.22;57.68;100627.84;5075255;28;1980;-56
2022/08/29 12:36:18;;;;;;;;;;;;;;;17.24;57.72;100631.16;5069874;28;840;-55
2022/08/29 12:38:48;;;;;;;;;;;;;;;17.19;57.90;100639.41;5075015;28;1032;-56
2022/08/29 12:41:24;;;;;;;;;;;;;;;17.21;57.86;100638.03;5066549;28;1376;-56
2022/08/29 12:43:50;;;;;;;;;;;;;;;17.20;58.01;100630.06;5057633;28;1081;-55
2022/08/29 12:46:19;;;;;;;;;;;;;;;17.25;57.82;100627.28;5057055;28;1006;-53
2022/08/29 12:48:45;;;;;;;;;;;;;;;17.23;57.66;100626.75;5048468;28;971;-54
2022/08/29 12:51:29;;;;;;;;;;;;;;;17.21;57.89;100620.72;5043812;28;1057;-56
2022/08/29 12:53:54;;;;;;;;;;;;;;;17.21;57.72;100615.22;5067236;28;1905;-56
2022/08/29 12:56:20;;;;;;;;;;;;;;;17.21;58.01;100627.03;5061303;28;1071;-55
2022/08/29 12:58:52;;;;;;;;;;;;;;;17.22;57.78;100622.34;5075358;28;1048;-55